sensor_id;sensor_type;location;lat;lon;timestamp;temperature;humidity
29403;DHT22;16382;59.942;30.472;2022-11-20T00:00:56;-3.30;99.90
29403;DHT22;16382;59.942;30.472;2022-11-20T00:03:23;-3.30;99.90
29403;DHT22;16382;59.942;30.472;2022-11-20T00:05:51;-3.20;99.90
29403;DHT22;16382;59.942;30.472;2022-11-20T00:08:19;-3.20;99.90
29403;DHT22;16382;59.942;30.472;2022-11-20T00:10:47;-3.10;99.90
29403;DHT22;16382;59.942;30.472;2022-11-20T00:13:14;-3.20;99.90
29403;DHT22;16382;59.942;30.472;2022-11-20T00:15:41;-3.20;99.90
29403;DHT22;16382;59.942;30.472;2022-11-20T00:18:09;-3.20;99.90
29403;DHT22;16382;59.942;30.472;2022-11-20T00:20:36;-3.20;99.90
29403;DHT22;16382;59.942;30.472;2022-11-20T00:23:04;-3.20;99.90
29403;DHT22;16382;59.942;30.472;2022-11-20T00:25:35;-3.20;99.90
29403;DHT22;16382;59.942;30.472;2022-11-20T00:28:02;-3.20;99.90
29403;DHT22;16382;59.942;30.472;2022-11-20T00:30:30;-3.20;99.90
29403;DHT22;16382;59.942;30.472;2022-11-20T00:32:57;-3.20;99.90
29403;DHT22;16382;59.942;30.472;2022-11-20T00:35:25;-3.20;99.90
29403;DHT22;16382;59.942;30.472;2022-11-20T00:37:52;-3.10;99.90
29403;DHT22;16382;59.942;30.472;2022-11-20T00:40:19;-3.20;99.90
29403;DHT22;16382;59.942;30.472;2022-11-20T00:42:48;-3.20;99.90
29403;DHT22;16382;59.942;30.472;2022-11-20T00:45:17;-3.20;99.90
29403;DHT22;16382;59.942;30.472;2022-11-20T00:47:44;-3.20;99.90
29403;DHT22;16382;59.942;30.472;2022-11-20T00:50:11;-3.20;99.90
29403;DHT22;16382;59.942;30.472;2022-11-20T00:52:39;-3.20;99.90
29403;DHT22;16382;59.942;30.472;2022-11-20T00:55:07;-3.10;99.90
29403;DHT22;16382;59.942;30.472;2022-11-20T00:57:37;-3.10;99.90
29403;DHT22;16382;59.942;30.472;2022-11-20T01:00:07;-3.10;99.90
29403;DHT22;16382;59.942;30.472;2022-11-20T01:02:35;-3.10;99.90
29403;DHT22;16382;59.942;30.472;2022-11-20T01:05:03;-3.00;99.90
29403;DHT22;16382;59.942;30.472;2022-11-20T01:07:32;-3.00;99.90
29403;DHT22;16382;59.942;30.472;2022-11-20T01:09:59;-3.00;99.90
29403;DHT22;16382;59.942;30.472;2022-11-20T01:12:29;-3.10;99.90
29403;DHT22;16382;59.942;30.472;2022-11-20T01:14:56;-3.00;99.90
29403;DHT22;16382;59.942;30.472;2022-11-20T01:17:25;-3.00;99.90
29403;DHT22;16382;59.942;30.472;2022-11-20T01:19:52;-3.00;99.90
29403;DHT22;16382;59.942;30.472;2022-11-20T01:22:20;-3.10;99.90
29403;DHT22;16382;59.942;30.472;2022-11-20T01:24:47;-3.10;99.90
29403;DHT22;16382;59.942;30.472;2022-11-20T01:27:15;-3.10;99.90
29403;DHT22;16382;59.942;30.472;2022-11-20T01:29:42;-3.10;99.90
29403;DHT22;16382;59.942;30.472;2022-11-20T01:32:09;-3.10;99.90
29403;DHT22;16382;59.942;30.472;2022-11-20T01:34:38;-3.10;99.90
29403;DHT22;16382;59.942;30.472;2022-11-20T01:37:06;-3.10;99.90
29403;DHT22;16382;59.942;30.472;2022-11-20T01:39:33;-3.10;99.90
29403;DHT22;16382;59.942;30.472;2022-11-20T01:42:00;-3.10;99.90
29403;DHT22;16382;59.942;30.472;2022-11-20T01:44:53;-3.10;99.90
29403;DHT22;16382;59.942;30.472;2022-11-20T01:47:25;-3.10;99.90
29403;DHT22;16382;59.942;30.472;2022-11-20T01:50:00;-3.10;99.90
29403;DHT22;16382;59.942;30.472;2022-11-20T01:52:34;-3.10;99.90
29403;DHT22;16382;59.942;30.472;2022-11-20T01:55:07;-3.00;99.90
29403;DHT22;16382;59.942;30.472;2022-11-20T01:57:37;-3.00;99.90
29403;DHT22;16382;59.942;30.472;2022-11-20T02:00:08;-3.00;99.90
29403;DHT22;16382;59.942;30.472;2022-11-20T02:02:42;-3.00;99.90
29403;DHT22;16382;59.942;30.472;2022-11-20T02:05:18;-3.00;99.90
29403;DHT22;16382;59.942;30.472;2022-11-20T02:07:48;-3.00;99.90
29403;DHT22;16382;59.942;30.472;2022-11-20T02:10:16;-3.00;99.90
29403;DHT22;16382;59.942;30.472;2022-11-20T02:12:44;-3.00;99.90
29403;DHT22;16382;59.942;30.472;2022-11-20T02:15:49;-3.00;99.90
29403;DHT22;16382;59.942;30.472;2022-11-20T02:18:19;-3.00;99.90
29403;DHT22;16382;59.942;30.472;2022-11-20T02:20:52;-3.10;99.90
29403;DHT22;16382;59.942;30.472;2022-11-20T02:23:26;-3.10;99.90
29403;DHT22;16382;59.942;30.472;2022-11-20T02:25:58;-3.10;99.90
29403;DHT22;16382;59.942;30.472;2022-11-20T02:28:28;-3.10;99.90
29403;DHT22;16382;59.942;30.472;2022-11-20T02:30:55;-3.10;99.90
29403;DHT22;16382;59.942;30.472;2022-11-20T02:33:23;-3.10;99.90
29403;DHT22;16382;59.942;30.472;2022-11-20T02:35:50;-3.10;99.90
29403;DHT22;16382;59.942;30.472;2022-11-20T02:38:18;-3.10;99.90
29403;DHT22;16382;59.942;30.472;2022-11-20T02:40:45;-3.10;99.90
29403;DHT22;16382;59.942;30.472;2022-11-20T02:43:16;-3.10;99.90
29403;DHT22;16382;59.942;30.472;2022-11-20T02:45:43;-3.10;99.90
29403;DHT22;16382;59.942;30.472;2022-11-20T02:48:10;-3.10;99.90
29403;DHT22;16382;59.942;30.472;2022-11-20T02:50:39;-3.10;99.90
29403;DHT22;16382;59.942;30.472;2022-11-20T02:53:07;-3.20;99.90
29403;DHT22;16382;59.942;30.472;2022-11-20T02:55:35;-3.10;99.90
29403;DHT22;16382;59.942;30.472;2022-11-20T02:58:02;-3.10;99.90
29403;DHT22;16382;59.942;30.472;2022-11-20T03:00:31;-3.10;99.90
29403;DHT22;16382;59.942;30.472;2022-11-20T03:02:59;-3.10;99.90
29403;DHT22;16382;59.942;30.472;2022-11-20T03:05:26;-3.10;99.90
29403;DHT22;16382;59.942;30.472;2022-11-20T03:07:54;-3.10;99.90
29403;DHT22;16382;59.942;30.472;2022-11-20T03:10:21;-3.10;99.90
29403;DHT22;16382;59.942;30.472;2022-11-20T03:12:53;-3.00;99.90
29403;DHT22;16382;59.942;30.472;2022-11-20T03:15:21;-3.10;99.90
29403;DHT22;16382;59.942;30.472;2022-11-20T03:17:53;-3.10;99.90
29403;DHT22;16382;59.942;30.472;2022-11-20T03:20:22;-3.10;99.90
29403;DHT22;16382;59.942;30.472;2022-11-20T03:22:49;-3.10;99.90
29403;DHT22;16382;59.942;30.472;2022-11-20T03:25:17;-3.10;99.90
29403;DHT22;16382;59.942;30.472;2022-11-20T03:27:44;-3.10;99.90
29403;DHT22;16382;59.942;30.472;2022-11-20T03:30:12;-3.10;99.90
29403;DHT22;16382;59.942;30.472;2022-11-20T03:32:40;-3.10;99.90
29403;DHT22;16382;59.942;30.472;2022-11-20T03:35:09;-3.10;99.90
29403;DHT22;16382;59.942;30.472;2022-11-20T03:37:37;-3.10;99.90
29403;DHT22;16382;59.942;30.472;2022-11-20T03:40:05;-3.20;99.90
29403;DHT22;16382;59.942;30.472;2022-11-20T03:42:33;-3.20;99.90
29403;DHT22;16382;59.942;30.472;2022-11-20T03:45:13;-3.20;99.90
29403;DHT22;16382;59.942;30.472;2022-11-20T03:47:41;-3.10;99.90
29403;DHT22;16382;59.942;30.472;2022-11-20T03:50:12;-3.10;99.90
29403;DHT22;16382;59.942;30.472;2022-11-20T03:52:40;-3.20;99.90
29403;DHT22;16382;59.942;30.472;2022-11-20T03:55:08;-3.20;99.90
29403;DHT22;16382;59.942;30.472;2022-11-20T03:57:36;-3.20;99.90
29403;DHT22;16382;59.942;30.472;2022-11-20T04:00:04;-3.20;99.90
29403;DHT22;16382;59.942;30.472;2022-11-20T04:02:32;-3.20;99.90
29403;DHT22;16382;59.942;30.472;2022-11-20T04:04:59;-3.20;99.90
29403;DHT22;16382;59.942;30.472;2022-11-20T04:07:28;-3.20;99.90
29403;DHT22;16382;59.942;30.472;2022-11-20T04:09:55;-3.30;99.90
29403;DHT22;16382;59.942;30.472;2022-11-20T04:12:23;-3.30;99.90
29403;DHT22;16382;59.942;30.472;2022-11-20T04:14:50;-3.30;99.90
29403;DHT22;16382;59.942;30.472;2022-11-20T04:17:17;-3.30;99.90
29403;DHT22;16382;59.942;30.472;2022-11-20T04:19:45;-3.30;99.90
29403;DHT22;16382;59.942;30.472;2022-11-20T04:22:12;-3.30;99.90
29403;DHT22;16382;59.942;30.472;2022-11-20T04:24:41;-3.30;99.90
29403;DHT22;16382;59.942;30.472;2022-11-20T04:27:08;-3.30;99.90
29403;DHT22;16382;59.942;30.472;2022-11-20T04:29:35;-3.30;99.90
29403;DHT22;16382;59.942;30.472;2022-11-20T04:32:03;-3.30;99.90
29403;DHT22;16382;59.942;30.472;2022-11-20T04:34:31;-3.30;99.90
29403;DHT22;16382;59.942;30.472;2022-11-20T04:36:58;-3.30;99.90
29403;DHT22;16382;59.942;30.472;2022-11-20T04:39:25;-3.30;99.90
29403;DHT22;16382;59.942;30.472;2022-11-20T04:41:54;-3.30;99.90
29403;DHT22;16382;59.942;30.472;2022-11-20T04:44:36;-3.30;99.90
29403;DHT22;16382;59.942;30.472;2022-11-20T04:47:09;-3.40;99.90
29403;DHT22;16382;59.942;30.472;2022-11-20T04:49:36;-3.40;99.90
29403;DHT22;16382;59.942;30.472;2022-11-20T04:52:04;-3.40;99.90
29403;DHT22;16382;59.942;30.472;2022-11-20T04:54:31;-3.40;99.90
29403;DHT22;16382;59.942;30.472;2022-11-20T04:57:00;-3.40;99.90
29403;DHT22;16382;59.942;30.472;2022-11-20T04:59:27;-3.40;99.90
29403;DHT22;16382;59.942;30.472;2022-11-20T05:01:54;-3.40;99.90
29403;DHT22;16382;59.942;30.472;2022-11-20T05:04:22;-3.40;99.90
29403;DHT22;16382;59.942;30.472;2022-11-20T05:06:50;-3.40;99.90
29403;DHT22;16382;59.942;30.472;2022-11-20T05:09:17;-3.40;99.90
29403;DHT22;16382;59.942;30.472;2022-11-20T05:11:44;-3.40;99.90
29403;DHT22;16382;59.942;30.472;2022-11-20T05:14:13;-3.40;99.90
29403;DHT22;16382;59.942;30.472;2022-11-20T05:16:41;-3.40;99.90
29403;DHT22;16382;59.942;30.472;2022-11-20T05:19:08;-3.50;99.90
29403;DHT22;16382;59.942;30.472;2022-11-20T05:21:36;-3.50;99.90
29403;DHT22;16382;59.942;30.472;2022-11-20T05:24:03;-3.50;99.90
29403;DHT22;16382;59.942;30.472;2022-11-20T05:26:32;-3.50;99.90
29403;DHT22;16382;59.942;30.472;2022-11-20T05:29:00;-3.60;99.90
29403;DHT22;16382;59.942;30.472;2022-11-20T05:31:29;-3.60;99.90
29403;DHT22;16382;59.942;30.472;2022-11-20T05:33:56;-3.60;99.90
29403;DHT22;16382;59.942;30.472;2022-11-20T05:36:24;-3.60;99.90
29403;DHT22;16382;59.942;30.472;2022-11-20T05:38:52;-3.60;99.90
29403;DHT22;16382;59.942;30.472;2022-11-20T05:41:20;-3.60;99.90
29403;DHT22;16382;59.942;30.472;2022-11-20T05:43:50;-3.60;99.90
29403;DHT22;16382;59.942;30.472;2022-11-20T05:46:19;-3.60;99.90
29403;DHT22;16382;59.942;30.472;2022-11-20T05:48:52;-3.60;99.90
29403;DHT22;16382;59.942;30.472;2022-11-20T05:51:19;-3.60;99.90
29403;DHT22;16382;59.942;30.472;2022-11-20T05:53:47;-3.60;99.90
29403;DHT22;16382;59.942;30.472;2022-11-20T05:56:16;-3.50;99.90
29403;DHT22;16382;59.942;30.472;2022-11-20T05:58:45;-3.50;99.90
29403;DHT22;16382;59.942;30.472;2022-11-20T06:01:17;-3.50;99.90
29403;DHT22;16382;59.942;30.472;2022-11-20T06:03:47;-3.50;99.90
29403;DHT22;16382;59.942;30.472;2022-11-20T06:06:18;-3.50;99.90
29403;DHT22;16382;59.942;30.472;2022-11-20T06:08:47;-3.50;99.90
29403;DHT22;16382;59.942;30.472;2022-11-20T06:11:15;-3.50;99.90
29403;DHT22;16382;59.942;30.472;2022-11-20T06:13:48;-3.50;99.90
29403;DHT22;16382;59.942;30.472;2022-11-20T06:16:17;-3.50;99.90
29403;DHT22;16382;59.942;30.472;2022-11-20T06:18:46;-3.60;99.90
29403;DHT22;16382;59.942;30.472;2022-11-20T06:21:15;-3.50;99.90
29403;DHT22;16382;59.942;30.472;2022-11-20T06:23:45;-3.50;99.90
29403;DHT22;16382;59.942;30.472;2022-11-20T06:26:14;-3.50;99.90
29403;DHT22;16382;59.942;30.472;2022-11-20T06:28:43;-3.50;99.90
29403;DHT22;16382;59.942;30.472;2022-11-20T06:31:12;-3.50;99.90
29403;DHT22;16382;59.942;30.472;2022-11-20T06:33:44;-3.60;99.90
29403;DHT22;16382;59.942;30.472;2022-11-20T06:36:13;-3.60;99.90
29403;DHT22;16382;59.942;30.472;2022-11-20T06:38:43;-3.60;99.90
29403;DHT22;16382;59.942;30.472;2022-11-20T06:41:13;-3.50;99.90
29403;DHT22;16382;59.942;30.472;2022-11-20T06:43:41;-3.60;99.90
29403;DHT22;16382;59.942;30.472;2022-11-20T06:46:09;-3.60;99.90
29403;DHT22;16382;59.942;30.472;2022-11-20T06:48:38;-3.60;99.90
29403;DHT22;16382;59.942;30.472;2022-11-20T06:51:07;-3.60;99.90
29403;DHT22;16382;59.942;30.472;2022-11-20T06:53:35;-3.60;99.90
29403;DHT22;16382;59.942;30.472;2022-11-20T06:56:05;-3.60;99.90
29403;DHT22;16382;59.942;30.472;2022-11-20T06:58:34;-3.50;99.90
29403;DHT22;16382;59.942;30.472;2022-11-20T07:01:04;-3.50;99.90
29403;DHT22;16382;59.942;30.472;2022-11-20T07:03:33;-3.50;99.90
29403;DHT22;16382;59.942;30.472;2022-11-20T07:06:01;-3.50;99.90
29403;DHT22;16382;59.942;30.472;2022-11-20T07:08:35;-3.50;99.90
29403;DHT22;16382;59.942;30.472;2022-11-20T07:11:06;-3.50;99.90
29403;DHT22;16382;59.942;30.472;2022-11-20T07:13:34;-3.50;99.90
29403;DHT22;16382;59.942;30.472;2022-11-20T07:16:04;-3.50;99.90
29403;DHT22;16382;59.942;30.472;2022-11-20T07:18:44;-3.40;99.90
29403;DHT22;16382;59.942;30.472;2022-11-20T07:21:12;-3.40;99.90
29403;DHT22;16382;59.942;30.472;2022-11-20T07:23:39;-3.40;99.90
29403;DHT22;16382;59.942;30.472;2022-11-20T07:26:09;-3.30;99.90
29403;DHT22;16382;59.942;30.472;2022-11-20T07:28:38;-3.30;99.90
29403;DHT22;16382;59.942;30.472;2022-11-20T07:31:06;-3.30;99.90
29403;DHT22;16382;59.942;30.472;2022-11-20T07:33:34;-3.40;99.90
29403;DHT22;16382;59.942;30.472;2022-11-20T07:36:02;-3.40;99.90
29403;DHT22;16382;59.942;30.472;2022-11-20T07:38:30;-3.40;99.90
29403;DHT22;16382;59.942;30.472;2022-11-20T07:40:58;-3.40;99.90
29403;DHT22;16382;59.942;30.472;2022-11-20T07:43:28;-3.40;99.90
29403;DHT22;16382;59.942;30.472;2022-11-20T07:45:57;-3.30;99.90
29403;DHT22;16382;59.942;30.472;2022-11-20T07:48:25;-3.30;99.90
29403;DHT22;16382;59.942;30.472;2022-11-20T07:50:53;-3.30;99.90
29403;DHT22;16382;59.942;30.472;2022-11-20T07:53:21;-3.30;99.90
29403;DHT22;16382;59.942;30.472;2022-11-20T07:55:49;-3.30;99.90
29403;DHT22;16382;59.942;30.472;2022-11-20T07:58:18;-3.40;99.90
29403;DHT22;16382;59.942;30.472;2022-11-20T08:00:47;-3.40;99.90
29403;DHT22;16382;59.942;30.472;2022-11-20T08:03:14;-3.30;99.90
29403;DHT22;16382;59.942;30.472;2022-11-20T08:05:41;-3.30;99.90
29403;DHT22;16382;59.942;30.472;2022-11-20T08:08:09;-3.30;99.90
29403;DHT22;16382;59.942;30.472;2022-11-20T08:10:36;-3.30;99.90
29403;DHT22;16382;59.942;30.472;2022-11-20T08:13:03;-3.20;99.90
29403;DHT22;16382;59.942;30.472;2022-11-20T08:15:50;-3.20;99.90
29403;DHT22;16382;59.942;30.472;2022-11-20T08:18:18;-3.20;99.90
29403;DHT22;16382;59.942;30.472;2022-11-20T08:20:46;-3.20;99.90
29403;DHT22;16382;59.942;30.472;2022-11-20T08:23:13;-3.20;99.90
29403;DHT22;16382;59.942;30.472;2022-11-20T08:25:41;-3.20;99.90
29403;DHT22;16382;59.942;30.472;2022-11-20T08:28:09;-3.10;99.90
29403;DHT22;16382;59.942;30.472;2022-11-20T08:30:37;-3.10;99.90
29403;DHT22;16382;59.942;30.472;2022-11-20T08:33:07;-3.10;99.90
29403;DHT22;16382;59.942;30.472;2022-11-20T08:35:36;-3.10;99.90
29403;DHT22;16382;59.942;30.472;2022-11-20T08:38:09;-3.10;99.90
29403;DHT22;16382;59.942;30.472;2022-11-20T08:40:37;-3.10;99.90
29403;DHT22;16382;59.942;30.472;2022-11-20T08:43:39;-3.10;99.90
29403;DHT22;16382;59.942;30.472;2022-11-20T08:46:07;-3.10;99.90
29403;DHT22;16382;59.942;30.472;2022-11-20T08:48:36;-3.20;99.90
29403;DHT22;16382;59.942;30.472;2022-11-20T08:51:03;-3.10;99.90
29403;DHT22;16382;59.942;30.472;2022-11-20T08:53:31;-3.10;99.90
29403;DHT22;16382;59.942;30.472;2022-11-20T08:55:59;-3.10;99.90
29403;DHT22;16382;59.942;30.472;2022-11-20T08:58:27;-3.10;99.90
29403;DHT22;16382;59.942;30.472;2022-11-20T09:00:54;-3.10;99.90
29403;DHT22;16382;59.942;30.472;2022-11-20T09:03:22;-3.10;99.90
29403;DHT22;16382;59.942;30.472;2022-11-20T09:05:51;-3.10;99.90
29403;DHT22;16382;59.942;30.472;2022-11-20T09:08:18;-3.10;99.90
29403;DHT22;16382;59.942;30.472;2022-11-20T09:10:45;-3.10;99.90
29403;DHT22;16382;59.942;30.472;2022-11-20T09:13:12;-3.10;99.90
29403;DHT22;16382;59.942;30.472;2022-11-20T09:15:40;-3.10;99.90
29403;DHT22;16382;59.942;30.472;2022-11-20T09:18:07;-3.10;99.90
29403;DHT22;16382;59.942;30.472;2022-11-20T09:20:35;-3.10;99.90
29403;DHT22;16382;59.942;30.472;2022-11-20T09:23:04;-3.00;99.90
29403;DHT22;16382;59.942;30.472;2022-11-20T09:25:31;-3.00;99.90
29403;DHT22;16382;59.942;30.472;2022-11-20T09:27:59;-2.90;99.90
29403;DHT22;16382;59.942;30.472;2022-11-20T09:30:27;-2.90;99.90
29403;DHT22;16382;59.942;30.472;2022-11-20T09:32:56;-2.80;99.90
29403;DHT22;16382;59.942;30.472;2022-11-20T09:35:24;-2.80;99.90
29403;DHT22;16382;59.942;30.472;2022-11-20T09:37:52;-2.70;99.90
29403;DHT22;16382;59.942;30.472;2022-11-20T09:40:23;-2.70;99.90
29403;DHT22;16382;59.942;30.472;2022-11-20T09:42:56;-2.70;99.90
29403;DHT22;16382;59.942;30.472;2022-11-20T09:45:30;-2.70;99.90
29403;DHT22;16382;59.942;30.472;2022-11-20T09:48:28;-2.70;99.90
29403;DHT22;16382;59.942;30.472;2022-11-20T09:51:07;-2.70;99.90
29403;DHT22;16382;59.942;30.472;2022-11-20T09:53:46;-2.80;99.90
29403;DHT22;16382;59.942;30.472;2022-11-20T09:56:25;-2.80;99.90
29403;DHT22;16382;59.942;30.472;2022-11-20T09:58:55;-2.80;99.90
29403;DHT22;16382;59.942;30.472;2022-11-20T10:01:29;-2.80;99.90
29403;DHT22;16382;59.942;30.472;2022-11-20T10:04:01;-2.80;99.90
29403;DHT22;16382;59.942;30.472;2022-11-20T10:06:32;-2.80;99.90
29403;DHT22;16382;59.942;30.472;2022-11-20T10:09:18;-2.80;99.90
29403;DHT22;16382;59.942;30.472;2022-11-20T10:12:00;-2.80;99.90
29403;DHT22;16382;59.942;30.472;2022-11-20T10:14:41;-2.80;99.90
29403;DHT22;16382;59.942;30.472;2022-11-20T10:17:21;-2.70;99.90
29403;DHT22;16382;59.942;30.472;2022-11-20T10:20:01;-2.60;99.90
29403;DHT22;16382;59.942;30.472;2022-11-20T10:22:47;-2.70;99.90
29403;DHT22;16382;59.942;30.472;2022-11-20T10:25:23;-2.70;99.90
29403;DHT22;16382;59.942;30.472;2022-11-20T10:28:17;-2.80;99.90
29403;DHT22;16382;59.942;30.472;2022-11-20T10:30:59;-2.70;99.90
29403;DHT22;16382;59.942;30.472;2022-11-20T10:33:32;-2.70;99.90
29403;DHT22;16382;59.942;30.472;2022-11-20T10:36:09;-2.70;99.90
29403;DHT22;16382;59.942;30.472;2022-11-20T10:38:43;-2.70;99.90
29403;DHT22;16382;59.942;30.472;2022-11-20T10:41:14;-2.70;99.90
29403;DHT22;16382;59.942;30.472;2022-11-20T10:44:01;-2.70;99.90
29403;DHT22;16382;59.942;30.472;2022-11-20T10:46:53;-2.70;99.90
29403;DHT22;16382;59.942;30.472;2022-11-20T10:49:21;-2.70;99.90
29403;DHT22;16382;59.942;30.472;2022-11-20T10:51:58;-2.70;99.90
29403;DHT22;16382;59.942;30.472;2022-11-20T10:54:38;-2.70;99.90
29403;DHT22;16382;59.942;30.472;2022-11-20T10:57:17;-2.70;99.90
29403;DHT22;16382;59.942;30.472;2022-11-20T11:00:07;-2.80;99.90
29403;DHT22;16382;59.942;30.472;2022-11-20T11:03:20;-2.70;99.90
29403;DHT22;16382;59.942;30.472;2022-11-20T11:05:54;-2.70;99.90
29403;DHT22;16382;59.942;30.472;2022-11-20T11:08:28;-2.70;99.90
29403;DHT22;16382;59.942;30.472;2022-11-20T11:11:07;-2.70;99.90
29403;DHT22;16382;59.942;30.472;2022-11-20T11:13:43;-2.70;99.90
29403;DHT22;16382;59.942;30.472;2022-11-20T11:16:20;-2.70;99.90
29403;DHT22;16382;59.942;30.472;2022-11-20T11:18:49;-2.70;99.90
29403;DHT22;16382;59.942;30.472;2022-11-20T11:21:23;-2.70;99.90
29403;DHT22;16382;59.942;30.472;2022-11-20T11:23:59;-2.70;99.90
29403;DHT22;16382;59.942;30.472;2022-11-20T11:26:28;-2.60;99.90
29403;DHT22;16382;59.942;30.472;2022-11-20T11:28:57;-2.60;99.90
29403;DHT22;16382;59.942;30.472;2022-11-20T11:31:28;-2.50;99.90
29403;DHT22;16382;59.942;30.472;2022-11-20T11:34:06;-2.50;99.90
29403;DHT22;16382;59.942;30.472;2022-11-20T11:36:35;-2.60;99.90
29403;DHT22;16382;59.942;30.472;2022-11-20T11:39:03;-2.70;99.90
29403;DHT22;16382;59.942;30.472;2022-11-20T11:41:33;-2.70;99.90
29403;DHT22;16382;59.942;30.472;2022-11-20T11:44:16;-2.70;99.90
29403;DHT22;16382;59.942;30.472;2022-11-20T11:47:04;-2.70;99.90
29403;DHT22;16382;59.942;30.472;2022-11-20T11:49:33;-2.80;99.90
29403;DHT22;16382;59.942;30.472;2022-11-20T11:52:08;-2.80;99.90
29403;DHT22;16382;59.942;30.472;2022-11-20T11:54:45;-2.80;99.90
29403;DHT22;16382;59.942;30.472;2022-11-20T11:57:20;-2.80;99.90
29403;DHT22;16382;59.942;30.472;2022-11-20T12:00:02;-2.80;99.90
29403;DHT22;16382;59.942;30.472;2022-11-20T12:02:42;-2.80;99.90
29403;DHT22;16382;59.942;30.472;2022-11-20T12:05:23;-2.70;99.90
29403;DHT22;16382;59.942;30.472;2022-11-20T12:07:54;-2.80;99.90
29403;DHT22;16382;59.942;30.472;2022-11-20T12:10:38;-2.70;99.90
29403;DHT22;16382;59.942;30.472;2022-11-20T12:16:11;-2.80;99.90
29403;DHT22;16382;59.942;30.472;2022-11-20T12:18:41;-2.80;99.90
29403;DHT22;16382;59.942;30.472;2022-11-20T12:21:18;-2.90;99.90
29403;DHT22;16382;59.942;30.472;2022-11-20T12:24:15;-2.90;99.90
29403;DHT22;16382;59.942;30.472;2022-11-20T12:27:03;-2.90;99.90
29403;DHT22;16382;59.942;30.472;2022-11-20T12:29:43;-2.90;99.90
29403;DHT22;16382;59.942;30.472;2022-11-20T12:32:44;-2.90;99.90
29403;DHT22;16382;59.942;30.472;2022-11-20T12:35:38;-2.90;99.90
29403;DHT22;16382;59.942;30.472;2022-11-20T12:38:33;-2.80;99.90
29403;DHT22;16382;59.942;30.472;2022-11-20T12:41:17;-2.80;99.90
29403;DHT22;16382;59.942;30.472;2022-11-20T12:44:18;-2.80;99.90
29403;DHT22;16382;59.942;30.472;2022-11-20T12:47:10;-2.80;99.90
29403;DHT22;16382;59.942;30.472;2022-11-20T12:49:48;-2.80;99.90
29403;DHT22;16382;59.942;30.472;2022-11-20T12:52:35;-2.90;99.90
29403;DHT22;16382;59.942;30.472;2022-11-20T12:55:25;-2.80;99.90
29403;DHT22;16382;59.942;30.472;2022-11-20T12:58:01;-2.80;99.90
29403;DHT22;16382;59.942;30.472;2022-11-20T13:00:40;-2.70;99.90
29403;DHT22;16382;59.942;30.472;2022-11-20T13:03:41;-2.70;99.90
29403;DHT22;16382;59.942;30.472;2022-11-20T13:06:16;-2.70;99.90
29403;DHT22;16382;59.942;30.472;2022-11-20T13:08:49;-2.70;99.90
29403;DHT22;16382;59.942;30.472;2022-11-20T13:11:25;-2.70;99.90
29403;DHT22;16382;59.942;30.472;2022-11-20T13:14:08;-2.80;99.90
29403;DHT22;16382;59.942;30.472;2022-11-20T13:16:44;-2.80;99.90
29403;DHT22;16382;59.942;30.472;2022-11-20T13:19:16;-2.80;99.90
29403;DHT22;16382;59.942;30.472;2022-11-20T13:21:45;-2.90;99.90
29403;DHT22;16382;59.942;30.472;2022-11-20T13:24:24;-2.90;99.90
29403;DHT22;16382;59.942;30.472;2022-11-20T13:27:04;-2.90;99.90
29403;DHT22;16382;59.942;30.472;2022-11-20T13:29:45;-2.90;99.90
29403;DHT22;16382;59.942;30.472;2022-11-20T13:32:15;-2.90;99.90
29403;DHT22;16382;59.942;30.472;2022-11-20T13:34:53;-3.00;99.90
29403;DHT22;16382;59.942;30.472;2022-11-20T13:37:28;-2.90;99.90
29403;DHT22;16382;59.942;30.472;2022-11-20T13:40:20;-2.90;99.90
29403;DHT22;16382;59.942;30.472;2022-11-20T13:43:08;-2.80;99.90
29403;DHT22;16382;59.942;30.472;2022-11-20T13:45:41;-2.80;99.90
29403;DHT22;16382;59.942;30.472;2022-11-20T13:48:22;-2.90;99.90
29403;DHT22;16382;59.942;30.472;2022-11-20T13:51:00;-2.90;99.90
29403;DHT22;16382;59.942;30.472;2022-11-20T13:53:55;-2.90;99.90
29403;DHT22;16382;59.942;30.472;2022-11-20T13:56:39;-2.80;99.90
29403;DHT22;16382;59.942;30.472;2022-11-20T13:59:28;-2.80;99.90
29403;DHT22;16382;59.942;30.472;2022-11-20T14:02:10;-2.90;99.90
29403;DHT22;16382;59.942;30.472;2022-11-20T14:04:43;-2.90;99.90
29403;DHT22;16382;59.942;30.472;2022-11-20T14:07:13;-2.90;99.90
29403;DHT22;16382;59.942;30.472;2022-11-20T14:09:50;-2.90;99.90
29403;DHT22;16382;59.942;30.472;2022-11-20T14:12:21;-2.90;99.90
29403;DHT22;16382;59.942;30.472;2022-11-20T14:14:52;-3.00;99.90
29403;DHT22;16382;59.942;30.472;2022-11-20T14:17:22;-3.00;99.90
29403;DHT22;16382;59.942;30.472;2022-11-20T14:19:53;-3.00;99.90
29403;DHT22;16382;59.942;30.472;2022-11-20T14:22:22;-3.00;99.90
29403;DHT22;16382;59.942;30.472;2022-11-20T14:25:02;-3.00;99.90
29403;DHT22;16382;59.942;30.472;2022-11-20T14:27:37;-2.90;99.90
29403;DHT22;16382;59.942;30.472;2022-11-20T14:30:06;-3.00;99.90
29403;DHT22;16382;59.942;30.472;2022-11-20T14:32:43;-3.00;99.90
29403;DHT22;16382;59.942;30.472;2022-11-20T14:35:19;-3.00;99.90
29403;DHT22;16382;59.942;30.472;2022-11-20T14:37:48;-3.00;99.90
29403;DHT22;16382;59.942;30.472;2022-11-20T14:40:25;-3.00;99.90
29403;DHT22;16382;59.942;30.472;2022-11-20T14:42:57;-3.00;99.90
29403;DHT22;16382;59.942;30.472;2022-11-20T14:45:26;-3.00;99.90
29403;DHT22;16382;59.942;30.472;2022-11-20T14:47:56;-3.00;99.90
29403;DHT22;16382;59.942;30.472;2022-11-20T14:50:26;-3.00;99.90
29403;DHT22;16382;59.942;30.472;2022-11-20T14:52:59;-2.90;99.90
29403;DHT22;16382;59.942;30.472;2022-11-20T14:55:29;-2.90;99.90
29403;DHT22;16382;59.942;30.472;2022-11-20T14:58:01;-2.90;99.90
29403;DHT22;16382;59.942;30.472;2022-11-20T15:00:34;-2.90;99.90
29403;DHT22;16382;59.942;30.472;2022-11-20T15:03:02;-2.80;99.90
29403;DHT22;16382;59.942;30.472;2022-11-20T15:05:47;-2.90;99.90
29403;DHT22;16382;59.942;30.472;2022-11-20T15:08:16;-2.90;99.90
29403;DHT22;16382;59.942;30.472;2022-11-20T15:10:49;-2.90;99.90
29403;DHT22;16382;59.942;30.472;2022-11-20T15:13:25;-2.90;99.90
29403;DHT22;16382;59.942;30.472;2022-11-20T15:15:58;-3.00;99.90
29403;DHT22;16382;59.942;30.472;2022-11-20T15:18:29;-3.00;99.90
29403;DHT22;16382;59.942;30.472;2022-11-20T15:21:01;-2.90;99.90
29403;DHT22;16382;59.942;30.472;2022-11-20T15:23:32;-2.90;99.90
29403;DHT22;16382;59.942;30.472;2022-11-20T15:26:01;-2.90;99.90
29403;DHT22;16382;59.942;30.472;2022-11-20T15:28:35;-2.90;99.90
29403;DHT22;16382;59.942;30.472;2022-11-20T15:31:04;-2.90;99.90
29403;DHT22;16382;59.942;30.472;2022-11-20T15:33:32;-3.00;99.90
29403;DHT22;16382;59.942;30.472;2022-11-20T15:36:00;-2.90;99.90
29403;DHT22;16382;59.942;30.472;2022-11-20T15:38:28;-2.90;99.90
29403;DHT22;16382;59.942;30.472;2022-11-20T15:40:55;-2.90;99.90
29403;DHT22;16382;59.942;30.472;2022-11-20T15:43:23;-2.90;99.90
29403;DHT22;16382;59.942;30.472;2022-11-20T15:45:55;-2.90;99.90
29403;DHT22;16382;59.942;30.472;2022-11-20T15:48:29;-3.00;99.90